Bryan, Texas
Current Conditions -  °F | °C
As of 7:15 PM on Sunday 21 Dec 2014 (Local Time) from KCFD Reporting Station
Overcast Overcast  
Wind Chill: 54°   Ceiling: 1600
Heat Index: 54°   Visibility: 10mi
Dew Point: 50°   Wind: 7mph
Humidity: 86%   Direction: 160°SSE
Pressure: 29.92"   Gusts: NA
Location:  30.67°N, 96.37°W
Report Text: KCFD 220115Z AUTO 16006KT 10SM OVC016 12/10 A2992 RMK AO2 T01220100
Loading
Personal Weather Stations






























Interactive Weather Map New forecast layout! Learn more

10-Day Weather Forecast

Advertisements
Track Severe Weather on mobile